Time;durP1;ratioP1;P1;durP2;ratioP2;P2;SDS_P1;SDS_P2;PMS_P1;PMS_P2;Temp;Humidity;BMP_temperature;BMP_pressure;BME280_temperature;BME280_humidity;BME280_pressure;Samples;Min_cycle;Max_cycle;Signal;HPM_P1;HPM_P2
2021/01/03 00:02:18;;;;;;;20.00;14.00;;;4.30;42.20;;;;;;10408865;28;20229;-74
2021/01/03 00:07:21;;;;;;;16.87;12.87;;;4.30;42.20;;;;;;10416255;28;20229;-74
2021/01/03 00:12:24;;;;;;;15.97;12.63;;;4.20;42.10;;;;;;10412449;28;20230;-74
2021/01/03 00:17:26;;;;;;;19.03;13.87;;;4.30;42.20;;;;;;10413367;28;20229;-74
2021/01/03 00:22:29;;;;;;;18.67;13.20;;;4.20;42.10;;;;;;10414451;28;20730;-74
2021/01/03 00:27:31;;;;;;;18.77;14.27;;;4.20;42.10;;;;;;10414858;28;20235;-74
2021/01/03 00:32:33;;;;;;;17.03;12.77;;;4.30;42.40;;;;;;10415393;28;20225;-74
2021/01/03 00:37:36;;;;;;;18.53;13.57;;;4.10;42.30;;;;;;10410532;28;20316;-74
2021/01/03 00:42:39;;;;;;;18.63;13.17;;;4.20;42.60;;;;;;10422379;28;20262;-74
2021/01/03 00:47:41;;;;;;;19.43;13.43;;;4.10;42.50;;;;;;10410772;28;20752;-74
2021/01/03 00:52:45;;;;;;;19.53;13.93;;;4.30;42.70;;;;;;10407303;28;20708;-74
2021/01/03 00:57:47;;;;;;;21.30;14.87;;;4.10;42.60;;;;;;10412640;28;20590;-74
2021/01/03 01:02:50;;;;;;;20.87;15.03;;;4.10;42.60;;;;;;10406259;28;21186;-74
2021/01/03 01:07:53;;;;;;;19.60;14.73;;;4.10;42.60;;;;;;10417605;28;20232;-74
2021/01/03 01:12:58;;;;;;;21.80;15.73;;;4.10;42.70;;;;;;10420893;28;20225;-74
2021/01/03 01:18:02;;;;;;;23.87;16.77;;;4.10;42.60;;;;;;10409389;28;20312;-73
2021/01/03 01:23:06;;;;;;;21.10;14.33;;;4.10;42.60;;;;;;10406266;28;20720;-73
2021/01/03 01:28:08;;;;;;;21.33;14.63;;;4.00;42.60;;;;;;10411475;28;20225;-74
2021/01/03 01:33:10;;;;;;;22.93;15.53;;;4.10;42.70;;;;;;10411169;28;20308;-74
2021/01/03 01:38:13;;;;;;;22.40;15.33;;;4.00;42.80;;;;;;10422174;28;20222;-74
2021/01/03 01:43:18;;;;;;;21.47;14.93;;;4.10;43.10;;;;;;10421098;28;20225;-74
2021/01/03 01:48:23;;;;;;;18.50;13.00;;;4.10;43.10;;;;;;10419711;28;20240;-74
2021/01/03 01:53:29;;;;;;;21.30;15.20;;;4.10;43.20;;;;;;10416219;28;20229;-74
2021/01/03 01:58:42;;;;;;;20.80;14.57;;;4.20;43.30;;;;;;10421133;28;20233;-74
2021/01/03 02:03:54;;;;;;;17.63;13.20;;;4.20;43.30;;;;;;10418790;28;20233;-74
2021/01/03 02:09:01;;;;;;;19.67;14.00;;;4.20;43.30;;;;;;10420860;28;20230;-74
2021/01/03 02:14:05;;;;;;;19.83;13.90;;;4.20;43.10;;;;;;10428005;28;20234;-73
2021/01/03 02:19:22;;;;;;;19.03;14.30;;;4.20;43.00;;;;;;10439214;28;20233;-74
2021/01/03 02:24:33;;;;;;;19.60;13.67;;;4.20;43.50;;;;;;10462029;28;20686;-74
2021/01/03 02:29:38;;;;;;;19.80;13.40;;;4.20;43.10;;;;;;10453930;28;20578;-74
2021/01/03 02:34:45;;;;;;;19.57;14.00;;;4.20;43.20;;;;;;10462594;28;20255;-74
2021/01/03 02:39:53;;;;;;;20.07;14.37;;;4.40;43.30;;;;;;10462937;28;20227;-74
2021/01/03 02:44:57;;;;;;;19.30;13.57;;;4.20;43.30;;;;;;10457867;28;20598;-74
2021/01/03 02:49:59;;;;;;;19.73;13.83;;;4.30;43.20;;;;;;10453559;28;20232;-74
2021/01/03 02:55:03;;;;;;;19.43;13.53;;;4.20;43.00;;;;;;10442798;28;20230;-73
2021/01/03 03:00:09;;;;;;;19.23;13.67;;;4.20;43.10;;;;;;10440990;28;20577;-73
2021/01/03 03:05:12;;;;;;;18.27;13.77;;;4.20;43.30;;;;;;10456387;28;20225;-73
2021/01/03 03:10:15;;;;;;;17.33;13.40;;;4.20;43.10;;;;;;10455465;28;20225;-74
2021/01/03 03:15:19;;;;;;;17.90;12.90;;;4.20;43.30;;;;;;10464650;28;20739;-74
2021/01/03 03:20:23;;;;;;;17.80;13.03;;;4.20;43.30;;;;;;10451770;28;20248;-74
2021/01/03 03:25:25;;;;;;;17.83;13.03;;;4.20;43.30;;;;;;10454005;28;20232;-74
2021/01/03 03:30:28;;;;;;;18.10;14.00;;;4.20;43.10;;;;;;10457395;28;20228;-74
2021/01/03 03:35:35;;;;;;;17.17;12.40;;;4.30;43.30;;;;;;10454188;28;20224;-74
2021/01/03 03:40:39;;;;;;;17.10;12.00;;;4.30;43.30;;;;;;10466225;28;20642;-74
2021/01/03 03:45:43;;;;;;;19.53;14.13;;;4.30;43.40;;;;;;10452275;28;20413;-74
2021/01/03 03:50:45;;;;;;;18.17;12.90;;;4.30;43.40;;;;;;10454035;28;20713;-74
2021/01/03 03:55:48;;;;;;;18.67;13.30;;;4.30;43.30;;;;;;10452961;28;20228;-74
2021/01/03 04:00:51;;;;;;;18.73;13.23;;;4.30;43.30;;;;;;10454475;28;20316;-74
2021/01/03 04:05:53;;;;;;;16.57;12.80;;;4.40;43.30;;;;;;10457482;28;20224;-74
2021/01/03 04:10:55;;;;;;;17.53;13.10;;;4.30;43.20;;;;;;10450041;28;20229;-74
2021/01/03 04:15:58;;;;;;;15.97;12.10;;;4.30;43.30;;;;;;10462406;28;20713;-75
2021/01/03 04:21:02;;;;;;;16.60;12.17;;;4.30;43.50;;;;;;10439253;28;20225;-73
2021/01/03 04:26:04;;;;;;;17.13;12.63;;;4.30;43.40;;;;;;10427711;28;20239;-73
2021/01/03 04:31:07;;;;;;;18.27;13.00;;;4.30;43.40;;;;;;10427741;28;20232;-73
2021/01/03 04:36:13;;;;;;;17.60;12.87;;;4.30;43.30;;;;;;10440169;28;20228;-74
2021/01/03 04:41:25;;;;;;;17.30;13.47;;;4.30;43.50;;;;;;10452276;28;20516;-73
2021/01/03 04:46:34;;;;;;;15.57;12.10;;;4.30;43.70;;;;;;10453139;28;20308;-74
2021/01/03 04:51:48;;;;;;;16.30;12.17;;;4.30;43.60;;;;;;10449279;28;20228;-74
2021/01/03 04:56:54;;;;;;;18.60;12.63;;;4.30;43.70;;;;;;10453812;28;20225;-74
2021/01/03 05:02:37;;;;;;;18.67;13.23;;;4.30;43.70;;;;;;10447980;28;20245;-74
2021/01/03 05:07:45;;;;;;;18.40;13.20;;;4.30;44.00;;;;;;10408892;28;20274;-74
2021/01/03 05:12:59;;;;;;;19.40;13.53;;;4.40;43.70;;;;;;10417212;28;20252;-73
2021/01/03 05:18:03;;;;;;;16.60;12.30;;;4.40;44.00;;;;;;10429810;28;20248;-72
2021/01/03 05:23:14;;;;;;;18.77;13.87;;;4.40;43.70;;;;;;10411962;28;20308;-73
2021/01/03 05:28:21;;;;;;;18.80;12.60;;;4.40;43.80;;;;;;10409580;28;20594;-74
2021/01/03 05:33:27;;;;;;;16.63;13.17;;;4.40;43.60;;;;;;10408784;28;20297;-74
2021/01/03 05:38:39;;;;;;;15.50;11.30;;;4.40;43.70;;;;;;10409040;28;20233;-74
2021/01/03 05:43:42;;;;;;;17.77;13.47;;;4.30;44.00;;;;;;10410404;28;20245;-74
2021/01/03 05:48:58;;;;;;;19.37;13.73;;;4.40;43.70;;;;;;10409919;28;20245;-74
2021/01/03 05:54:03;;;;;;;17.47;13.70;;;4.30;43.80;;;;;;10406960;28;20228;-74
2021/01/03 05:59:06;;;;;;;17.90;13.37;;;4.30;43.60;;;;;;10430178;28;20330;-73
2021/01/03 06:04:11;;;;;;;18.87;14.37;;;4.30;43.50;;;;;;10451691;28;20239;-74
2021/01/03 06:09:14;;;;;;;21.00;14.10;;;4.30;43.70;;;;;;10449222;28;20792;-73
2021/01/03 06:14:23;;;;;;;19.57;13.83;;;4.30;43.60;;;;;;10459076;28;20225;-73
2021/01/03 06:19:35;;;;;;;18.63;12.80;;;4.30;44.00;;;;;;10448767;28;20233;-74
2021/01/03 06:24:41;;;;;;;21.10;15.33;;;4.20;43.90;;;;;;10462243;28;20299;-73
2021/01/03 06:29:50;;;;;;;21.00;15.10;;;4.40;44.00;;;;;;10453634;28;20308;-74
2021/01/03 06:35:01;;;;;;;22.90;15.87;;;4.30;43.60;;;;;;10456891;28;20228;-74
2021/01/03 06:40:12;;;;;;;19.07;14.27;;;4.30;43.90;;;;;;10450014;28;20308;-74
2021/01/03 06:45:40;;;;;;;21.10;14.67;;;4.30;43.90;;;;;;10432338;28;20505;-73
2021/01/03 06:51:42;;;;;;;22.63;14.97;;;4.30;44.10;;;;;;10418543;28;20317;-74
2021/01/03 06:57:11;;;;;;;19.70;13.60;;;4.30;44.00;;;;;;10394177;28;20234;-73
2021/01/03 07:02:15;;;;;;;17.70;13.57;;;4.40;43.80;;;;;;10411455;28;20236;-69
2021/01/03 07:07:22;;;;;;;19.47;13.87;;;4.40;43.60;;;;;;10422691;28;20226;-69
2021/01/03 07:12:36;;;;;;;16.27;12.57;;;4.40;43.70;;;;;;10417638;28;20637;-68
2021/01/03 07:18:19;;;;;;;18.50;14.37;;;4.30;43.80;;;;;;10411673;28;20240;-74
2021/01/03 07:23:34;;;;;;;24.37;14.87;;;4.30;44.00;;;;;;10410422;28;20233;-74
2021/01/03 07:28:37;;;;;;;22.63;17.73;;;4.40;44.00;;;;;;10422245;28;20235;-74
2021/01/03 07:33:50;;;;;;;21.93;15.27;;;4.30;43.50;;;;;;10419290;28;20239;-74
2021/01/03 07:39:10;;;;;;;17.13;14.43;;;4.30;43.80;;;;;;10421837;28;20721;-74
2021/01/03 07:44:29;;;;;;;17.53;14.03;;;4.30;44.00;;;;;;10410917;28;20689;-74
2021/01/03 07:49:37;;;;;;;16.73;13.37;;;4.30;43.70;;;;;;10412466;28;20225;-74
2021/01/03 07:54:48;;;;;;;17.43;14.13;;;4.30;43.90;;;;;;10412919;28;20221;-74
2021/01/03 07:59:51;;;;;;;19.00;14.37;;;4.30;44.00;;;;;;10409415;28;20232;-74
2021/01/03 08:04:54;;;;;;;19.03;14.57;;;4.30;43.60;;;;;;10412111;28;20229;-68
2021/01/03 08:10:05;;;;;;;17.87;13.87;;;4.30;43.70;;;;;;10411545;28;20232;-69
2021/01/03 08:15:12;;;;;;;19.50;14.73;;;4.30;43.80;;;;;;10412468;28;20225;-73
2021/01/03 08:20:19;;;;;;;17.10;13.77;;;4.30;43.80;;;;;;10408440;28;20624;-73
2021/01/03 08:25:24;;;;;;;17.23;14.00;;;4.20;43.80;;;;;;10410317;28;20316;-74
2021/01/03 08:30:32;;;;;;;18.63;13.63;;;4.30;44.00;;;;;;10408702;28;20226;-74
2021/01/03 08:35:34;;;;;;;18.80;14.67;;;4.30;43.90;;;;;;10419761;28;20243;-74
2021/01/03 08:40:38;;;;;;;18.80;14.50;;;4.30;43.80;;;;;;10413596;28;20231;-74
2021/01/03 08:45:45;;;;;;;16.93;13.00;;;4.40;44.00;;;;;;10415418;28;20234;-74
2021/01/03 08:50:48;;;;;;;15.13;11.67;;;4.40;43.90;;;;;;10408766;28;20229;-74
2021/01/03 08:55:51;;;;;;;19.27;13.93;;;4.40;43.80;;;;;;10410289;28;20230;-74
2021/01/03 09:01:01;;;;;;;17.73;13.30;;;4.50;43.90;;;;;;10408636;28;20233;-68
2021/01/03 09:06:04;;;;;;;17.13;13.87;;;4.50;44.20;;;;;;10411629;28;20711;-68
2021/01/03 09:11:11;;;;;;;20.00;15.27;;;4.60;43.90;;;;;;10412016;28;20226;-68
2021/01/03 09:16:23;;;;;;;19.17;14.47;;;4.60;43.80;;;;;;10414893;28;20313;-68
2021/01/03 09:21:26;;;;;;;19.53;14.90;;;4.70;44.00;;;;;;10406373;28;20233;-68
2021/01/03 09:26:38;;;;;;;18.70;15.37;;;4.80;43.70;;;;;;10417710;28;20230;-69
2021/01/03 09:31:57;;;;;;;18.40;15.17;;;4.70;43.90;;;;;;10411432;28;20239;-68
2021/01/03 09:37:07;;;;;;;19.63;15.20;;;4.70;44.00;;;;;;10416854;28;20243;-69
2021/01/03 09:42:49;;;;;;;18.30;15.10;;;4.70;43.80;;;;;;10411576;28;20233;-69
2021/01/03 09:47:52;;;;;;;18.87;14.37;;;4.80;44.10;;;;;;10410230;28;20228;-69
2021/01/03 09:52:59;;;;;;;19.43;14.27;;;4.80;43.60;;;;;;10408630;28;20227;-74
2021/01/03 09:58:04;;;;;;;19.70;14.30;;;4.70;43.90;;;;;;10410729;28;20564;-73
2021/01/03 10:03:15;;;;;;;16.57;13.03;;;4.70;43.80;;;;;;10417595;28;20233;-74
2021/01/03 10:08:22;;;;;;;22.63;16.93;;;4.70;44.30;;;;;;10429230;28;20228;-74
2021/01/03 10:13:26;;;;;;;18.47;15.03;;;4.80;44.10;;;;;;10426222;28;20224;-74
2021/01/03 10:18:33;;;;;;;19.17;14.93;;;4.80;43.80;;;;;;10415891;28;20601;-73
2021/01/03 10:23:38;;;;;;;20.70;14.90;;;4.80;44.00;;;;;;10425718;28;20232;-74
2021/01/03 10:28:40;;;;;;;18.13;14.23;;;4.80;44.00;;;;;;10421343;28;20243;-73
2021/01/03 10:33:44;;;;;;;17.27;13.67;;;4.70;44.00;;;;;;10417709;28;20727;-73
2021/01/03 10:38:46;;;;;;;18.00;14.40;;;4.70;44.00;;;;;;10414950;28;20317;-74
2021/01/03 10:43:50;;;;;;;17.53;14.17;;;4.70;43.90;;;;;;10423372;28;20320;-74
2021/01/03 10:48:53;;;;;;;20.63;15.70;;;4.70;43.90;;;;;;10413482;28;20325;-73
2021/01/03 10:53:56;;;;;;;18.37;14.63;;;4.80;44.10;;;;;;10422965;28;20783;-73
2021/01/03 10:58:58;;;;;;;17.53;14.33;;;4.80;44.00;;;;;;10419890;28;20609;-73
2021/01/03 11:04:01;;;;;;;18.40;14.83;;;4.90;44.00;;;;;;10426855;28;20233;-73
2021/01/03 11:09:04;;;;;;;18.27;14.33;;;4.80;43.80;;;;;;10414135;28;20222;-73
2021/01/03 11:14:07;;;;;;;16.97;13.97;;;4.90;43.80;;;;;;10416345;28;20249;-73
2021/01/03 11:19:13;;;;;;;17.17;14.00;;;4.90;43.80;;;;;;10416651;28;20233;-73
2021/01/03 11:24:15;;;;;;;18.23;14.10;;;4.90;43.80;;;;;;10414013;28;20233;-73
2021/01/03 11:29:20;;;;;;;16.30;13.27;;;4.90;43.70;;;;;;10423287;28;20279;-73
2021/01/03 11:34:26;;;;;;;18.70;14.90;;;4.90;43.80;;;;;;10414705;28;20226;-73
2021/01/03 11:39:30;;;;;;;17.60;13.97;;;4.90;43.90;;;;;;10422460;28;20278;-73
2021/01/03 11:44:32;;;;;;;19.30;15.27;;;5.00;43.80;;;;;;10411190;28;20233;-73
2021/01/03 11:49:36;;;;;;;17.17;13.67;;;5.00;44.00;;;;;;10409349;28;20230;-72
2021/01/03 11:54:59;;;;;;;17.63;14.20;;;5.10;44.00;;;;;;10419919;28;20225;-73
2021/01/03 12:00:03;;;;;;;19.37;15.20;;;5.10;43.60;;;;;;10413406;28;20263;-72
2021/01/03 12:05:08;;;;;;;24.13;16.50;;;5.10;43.60;;;;;;10423500;28;20332;-73
2021/01/03 12:10:11;;;;;;;16.77;13.87;;;5.10;43.70;;;;;;10411655;28;20309;-72
2021/01/03 12:15:14;;;;;;;28.53;23.93;;;5.20;43.70;;;;;;10420890;28;20604;-73
2021/01/03 12:20:17;;;;;;;18.23;15.40;;;5.20;43.60;;;;;;10407813;28;20237;-73
2021/01/03 12:25:19;;;;;;;18.47;13.90;;;5.20;43.30;;;;;;10421444;28;20229;-73
2021/01/03 12:30:23;;;;;;;18.70;15.00;;;5.30;43.50;;;;;;10410473;28;20322;-72
2021/01/03 12:35:26;;;;;;;20.87;17.83;;;5.30;43.50;;;;;;10412987;28;20229;-67
2021/01/03 12:40:29;;;;;;;18.53;15.77;;;5.30;43.30;;;;;;10415790;28;20239;-72
2021/01/03 12:45:31;;;;;;;17.70;14.97;;;5.40;43.50;;;;;;10410168;28;20542;-72
2021/01/03 12:50:34;;;;;;;19.47;15.30;;;5.40;43.40;;;;;;10409950;28;20312;-72
2021/01/03 12:55:39;;;;;;;17.63;14.30;;;5.40;43.30;;;;;;10415736;28;20224;-72
2021/01/03 13:00:41;;;;;;;17.17;14.60;;;5.40;43.50;;;;;;10408262;28;20240;-72
2021/01/03 13:05:44;;;;;;;19.13;16.00;;;5.40;43.50;;;;;;10414316;28;20233;-72
2021/01/03 13:10:47;;;;;;;16.33;13.23;;;5.50;43.60;;;;;;10407344;28;20234;-72
2021/01/03 13:15:49;;;;;;;16.03;14.17;;;5.50;43.60;;;;;;10416533;28;20241;-72
2021/01/03 13:20:53;;;;;;;17.37;14.63;;;5.50;43.60;;;;;;10406660;28;20244;-67
2021/01/03 13:25:55;;;;;;;17.50;15.07;;;5.50;43.30;;;;;;10420361;28;20264;-67
2021/01/03 13:30:57;;;;;;;14.93;11.77;;;5.60;43.50;;;;;;10411879;28;20233;-72
2021/01/03 13:36:00;;;;;;;15.33;12.87;;;5.60;43.50;;;;;;10423714;28;20721;-72
2021/01/03 13:41:02;;;;;;;21.43;17.57;;;5.60;43.40;;;;;;10425257;28;20233;-71
2021/01/03 13:46:05;;;;;;;18.27;15.20;;;5.70;43.30;;;;;;10422245;28;20224;-72
2021/01/03 13:51:10;;;;;;;15.77;13.20;;;5.70;43.30;;;;;;10420221;28;20312;-71
2021/01/03 13:56:12;;;;;;;16.00;13.87;;;5.80;43.40;;;;;;10426211;28;20217;-67
2021/01/03 14:01:14;;;;;;;14.73;12.97;;;5.80;43.40;;;;;;10421500;28;20792;-67
2021/01/03 14:06:17;;;;;;;14.07;12.37;;;5.80;43.40;;;;;;10423339;28;20226;-67
2021/01/03 14:11:21;;;;;;;15.40;12.13;;;5.90;43.50;;;;;;10423200;28;20237;-67
2021/01/03 14:16:25;;;;;;;16.10;14.27;;;5.90;43.30;;;;;;10422322;28;20587;-67
2021/01/03 14:21:29;;;;;;;16.67;14.17;;;5.90;43.20;;;;;;10425449;28;20229;-68
2021/01/03 14:26:39;;;;;;;19.73;14.43;;;5.90;43.50;;;;;;10419119;28;20261;-67
2021/01/03 14:31:41;;;;;;;16.37;13.10;;;5.90;43.30;;;;;;10436305;28;20221;-67
2021/01/03 14:36:44;;;;;;;22.70;18.03;;;5.90;43.20;;;;;;10424117;28;20762;-67
2021/01/03 14:41:47;;;;;;;14.40;12.50;;;5.90;43.10;;;;;;10429004;28;20244;-67
2021/01/03 14:46:54;;;;;;;15.63;12.93;;;5.90;43.10;;;;;;10419483;28;20600;-67
2021/01/03 14:52:19;;;;;;;14.50;11.83;;;5.90;43.20;;;;;;10411894;28;20241;-67
2021/01/03 14:57:25;;;;;;;11.57;9.97;;;5.90;43.10;;;;;;10419721;28;20308;-72
2021/01/03 15:02:53;;;;;;;15.47;13.10;;;5.90;43.00;;;;;;10413645;28;20736;-72
2021/01/03 15:08:00;;;;;;;15.70;13.40;;;5.90;43.00;;;;;;10417285;28;20225;-72
2021/01/03 15:13:04;;;;;;;15.80;13.50;;;5.90;43.00;;;;;;10417440;28;20218;-72
2021/01/03 15:18:18;;;;;;;13.03;11.53;;;6.00;43.00;;;;;;10414183;28;20221;-72
2021/01/03 15:23:26;;;;;;;14.83;12.67;;;5.90;44.20;;;;;;10436836;28;20611;-71
2021/01/03 15:28:34;;;;;;;14.97;11.20;;;6.00;44.00;;;;;;10434134;28;20228;-69
2021/01/03 15:33:41;;;;;;;13.47;12.07;;;6.10;45.80;;;;;;10438559;28;20225;-69
2021/01/03 15:38:44;;;;;;;16.10;13.60;;;6.40;45.30;;;;;;10425725;28;20241;-70
2021/01/03 15:43:52;;;;;;;16.33;13.80;;;6.60;44.50;;;;;;10420974;28;20244;-70
2021/01/03 15:48:59;;;;;;;15.77;13.77;;;6.80;43.90;;;;;;10414913;28;20265;-70
2021/01/03 15:54:05;;;;;;;14.53;13.03;;;6.90;43.30;;;;;;10415281;28;20283;-70
2021/01/03 15:59:08;;;;;;;16.27;13.40;;;7.00;43.00;;;;;;10418813;28;20694;-70
2021/01/03 16:04:12;;;;;;;19.87;16.30;;;6.90;43.00;;;;;;10417947;28;20238;-71
2021/01/03 16:09:18;;;;;;;23.13;19.40;;;6.90;42.50;;;;;;10416562;28;20238;-71
2021/01/03 16:14:21;;;;;;;22.47;20.03;;;6.80;42.30;;;;;;10431033;28;20227;-72
2021/01/03 16:19:31;;;;;;;20.43;16.87;;;6.80;42.50;;;;;;10423550;28;20247;-72
2021/01/03 16:24:35;;;;;;;16.53;14.23;;;6.70;42.40;;;;;;10420438;28;20278;-72
2021/01/03 16:29:57;;;;;;;16.13;12.77;;;6.70;42.50;;;;;;10433377;28;20221;-68
2021/01/03 16:35:31;;;;;;;15.77;13.70;;;6.60;42.50;;;;;;10408374;28;20233;-67
2021/01/03 16:40:43;;;;;;;16.13;14.23;;;6.60;42.60;;;;;;10407109;28;20225;-67
2021/01/03 16:45:55;;;;;;;13.77;12.13;;;6.60;42.70;;;;;;10410332;28;20259;-67
2021/01/03 16:51:04;;;;;;;15.00;13.43;;;6.60;42.80;;;;;;10414489;28;20308;-68
2021/01/03 16:56:28;;;;;;;15.50;13.33;;;6.50;42.70;;;;;;10440976;28;20228;-68
2021/01/03 17:01:35;;;;;;;15.07;13.20;;;6.60;42.70;;;;;;10447880;28;20234;-67
2021/01/03 17:07:00;;;;;;;13.67;11.80;;;6.50;42.80;;;;;;10464446;28;20870;-67
2021/01/03 17:12:48;;;;;;;19.40;16.73;;;6.50;42.80;;;;;;10437353;28;20256;-70
2021/01/03 17:17:54;;;;;;;19.83;15.60;;;6.60;43.00;;;;;;10418358;28;21801;-71
2021/01/03 17:23:09;;;;;;;16.83;15.03;;;6.50;42.90;;;;;;10446381;28;20239;-67
2021/01/03 17:28:35;;;;;;;17.47;15.57;;;6.60;42.80;;;;;;10419090;28;20228;-67
2021/01/03 17:33:52;;;;;;;15.83;13.50;;;6.60;42.90;;;;;;10424692;28;20351;-67
2021/01/03 17:38:58;;;;;;;22.60;18.20;;;6.60;42.90;;;;;;10426396;28;20232;-67
2021/01/03 17:44:06;;;;;;;19.90;16.53;;;6.60;42.70;;;;;;10426224;28;20718;-67
2021/01/03 17:49:17;;;;;;;20.57;16.03;;;6.50;42.70;;;;;;10420986;28;20695;-67
2021/01/03 17:54:22;;;;;;;18.20;15.93;;;6.50;42.70;;;;;;10432186;28;20727;-67
2021/01/03 17:59:33;;;;;;;21.87;18.40;;;6.50;42.70;;;;;;10456511;28;20221;-67
2021/01/03 18:04:36;;;;;;;17.60;15.63;;;6.50;42.50;;;;;;10464817;28;20224;-67
2021/01/03 18:09:38;;;;;;;17.80;15.70;;;6.50;42.50;;;;;;10469617;28;20225;-67
2021/01/03 18:14:41;;;;;;;17.03;14.60;;;6.40;42.70;;;;;;10456719;28;20223;-67
2021/01/03 18:19:43;;;;;;;19.20;16.73;;;6.40;42.70;;;;;;10457334;28;20221;-67
2021/01/03 18:24:50;;;;;;;19.57;16.97;;;6.40;42.70;;;;;;10455488;28;20232;-67
2021/01/03 18:29:54;;;;;;;20.13;17.07;;;6.40;42.80;;;;;;10454387;28;20221;-67
2021/01/03 18:34:56;;;;;;;17.90;15.87;;;6.40;42.70;;;;;;10462807;28;20229;-67
2021/01/03 18:39:58;;;;;;;19.00;16.27;;;6.30;42.60;;;;;;10456783;28;20235;-67
2021/01/03 18:45:01;;;;;;;18.77;16.67;;;6.30;42.60;;;;;;10457046;28;20236;-68
2021/01/03 18:50:04;;;;;;;18.67;16.63;;;6.30;42.70;;;;;;10462672;28;20228;-70
2021/01/03 18:55:08;;;;;;;26.03;19.23;;;6.30;42.80;;;;;;10459326;28;20228;-69
2021/01/03 19:00:14;;;;;;;28.03;18.97;;;6.30;42.90;;;;;;10459658;28;20310;-70
2021/01/03 19:05:18;;;;;;;24.20;19.10;;;6.30;43.00;;;;;;10453048;28;20251;-69
2021/01/03 19:10:20;;;;;;;19.23;16.87;;;6.30;42.90;;;;;;10466986;28;20216;-69
2021/01/03 19:15:24;;;;;;;15.87;13.47;;;6.40;42.90;;;;;;10468445;28;20228;-70
2021/01/03 19:20:26;;;;;;;16.23;14.53;;;6.30;42.70;;;;;;10476497;28;20224;-70
2021/01/03 19:25:28;;;;;;;16.07;14.13;;;6.30;42.70;;;;;;10474358;28;20221;-69
2021/01/03 19:30:31;;;;;;;17.87;14.67;;;6.30;42.80;;;;;;10457384;28;20232;-69
2021/01/03 19:35:33;;;;;;;17.03;14.30;;;6.30;42.70;;;;;;10468502;28;20263;-70
2021/01/03 19:40:42;;;;;;;16.33;14.03;;;6.30;42.70;;;;;;10478489;28;20224;-69
2021/01/03 19:45:45;;;;;;;18.80;15.80;;;6.30;42.70;;;;;;10467052;28;20224;-69
2021/01/03 19:50:47;;;;;;;21.13;16.87;;;6.30;42.70;;;;;;10469104;28;20220;-72
2021/01/03 19:55:50;;;;;;;15.10;13.37;;;6.20;42.70;;;;;;10470374;28;20248;-70
2021/01/03 20:00:53;;;;;;;16.03;14.33;;;6.20;42.90;;;;;;10471119;28;20224;-70
2021/01/03 20:05:56;;;;;;;15.23;13.63;;;6.20;42.90;;;;;;10472653;28;20282;-70
2021/01/03 20:10:58;;;;;;;13.17;11.77;;;6.20;42.90;;;;;;10467507;28;20231;-70
2021/01/03 20:16:01;;;;;;;14.73;12.83;;;6.20;42.90;;;;;;10468994;28;20225;-69
2021/01/03 20:21:05;;;;;;;15.50;13.87;;;6.20;43.00;;;;;;10467015;28;20227;-71
2021/01/03 20:26:11;;;;;;;16.03;13.53;;;6.20;43.00;;;;;;10467113;28;20712;-70
2021/01/03 20:31:19;;;;;;;14.67;13.13;;;6.20;42.90;;;;;;10473713;28;20577;-70
2021/01/03 20:36:22;;;;;;;17.13;13.37;;;6.20;43.00;;;;;;10469546;28;20254;-70
2021/01/03 20:41:26;;;;;;;15.00;12.90;;;6.10;42.80;;;;;;10479295;28;20634;-72
2021/01/03 20:46:29;;;;;;;15.33;13.23;;;6.20;42.90;;;;;;10469913;28;20708;-70
2021/01/03 20:51:31;;;;;;;16.80;14.23;;;6.10;42.80;;;;;;10467127;28;20229;-70
2021/01/03 20:56:33;;;;;;;15.00;13.07;;;6.10;42.70;;;;;;10467519;28;20226;-70
2021/01/03 21:01:39;;;;;;;15.70;13.43;;;6.10;42.90;;;;;;10464679;28;20599;-70
2021/01/03 21:06:47;;;;;;;14.63;12.63;;;6.00;43.00;;;;;;10468183;28;20239;-70
2021/01/03 21:11:49;;;;;;;16.33;14.10;;;6.00;43.00;;;;;;10466492;28;20307;-70
2021/01/03 21:16:53;;;;;;;14.93;13.37;;;6.00;43.10;;;;;;10467486;28;20232;-70
2021/01/03 21:21:58;;;;;;;16.37;14.57;;;6.00;43.00;;;;;;10470464;28;20232;-70
2021/01/03 21:27:19;;;;;;;16.87;14.60;;;6.00;43.00;;;;;;10469782;28;20261;-70
2021/01/03 21:32:33;;;;;;;16.50;14.00;;;6.00;43.20;;;;;;10469869;28;20210;-71
2021/01/03 21:37:56;;;;;;;16.43;14.70;;;6.00;43.10;;;;;;10470387;28;20308;-71
2021/01/03 21:43:15;;;;;;;15.10;13.30;;;6.00;43.20;;;;;;10469743;28;20264;-70
2021/01/03 21:48:22;;;;;;;20.13;14.60;;;6.00;43.20;;;;;;10472624;28;20228;-71
2021/01/03 21:53:40;;;;;;;15.37;12.13;;;6.00;43.30;;;;;;10476344;28;20224;-71
2021/01/03 21:59:26;;;;;;;15.93;13.83;;;6.00;43.20;;;;;;10477794;28;20234;-71
2021/01/03 22:04:55;;;;;;;16.40;13.80;;;6.00;43.30;;;;;;10456263;28;20230;-71
2021/01/03 22:10:29;;;;;;;15.83;13.63;;;6.00;43.30;;;;;;10477799;28;20226;-71
2021/01/03 22:15:41;;;;;;;16.30;13.90;;;6.00;43.40;;;;;;10474250;28;20244;-71
2021/01/03 22:20:53;;;;;;;17.57;14.70;;;6.00;43.20;;;;;;10459108;28;20235;-70
2021/01/03 22:25:57;;;;;;;15.90;14.20;;;6.00;43.30;;;;;;10452919;28;20229;-71
2021/01/03 22:31:44;;;;;;;16.73;14.20;;;6.00;43.00;;;;;;10458915;28;20224;-70
2021/01/03 22:36:55;;;;;;;15.50;13.83;;;6.00;43.40;;;;;;10446328;28;20598;-71
2021/01/03 22:42:06;;;;;;;15.17;12.67;;;6.00;43.20;;;;;;10468075;28;20220;-71
2021/01/03 22:47:15;;;;;;;14.30;12.63;;;6.00;43.20;;;;;;10469074;28;20221;-71
2021/01/03 22:52:31;;;;;;;14.83;13.23;;;5.90;43.20;;;;;;10463457;28;20605;-71
2021/01/03 22:57:45;;;;;;;13.80;12.27;;;5.90;43.40;;;;;;10447585;28;20228;-70
2021/01/03 23:02:57;;;;;;;16.40;13.73;;;5.90;43.30;;;;;;10451983;28;20782;-71
2021/01/03 23:08:06;;;;;;;14.13;11.83;;;5.90;43.30;;;;;;10450332;28;20236;-71
2021/01/03 23:13:13;;;;;;;16.53;14.43;;;5.90;43.40;;;;;;10449972;28;20217;-71
2021/01/03 23:18:22;;;;;;;18.97;15.63;;;5.90;43.40;;;;;;10448757;28;20840;-71
2021/01/03 23:23:28;;;;;;;17.80;15.27;;;5.80;43.40;;;;;;10454252;28;20302;-71
2021/01/03 23:28:34;;;;;;;16.87;14.17;;;5.80;43.10;;;;;;10448182;28;20239;-71
2021/01/03 23:33:42;;;;;;;16.20;12.97;;;5.80;43.20;;;;;;10446637;28;20227;-71
2021/01/03 23:38:48;;;;;;;17.23;14.87;;;5.80;43.40;;;;;;10452613;28;20322;-71
2021/01/03 23:43:53;;;;;;;16.60;14.40;;;5.80;43.40;;;;;;10468350;28;20242;-71
2021/01/03 23:49:18;;;;;;;18.70;14.77;;;5.80;43.40;;;;;;10448160;28;20744;-71
2021/01/03 23:54:42;;;;;;;17.80;14.73;;;5.80;43.40;;;;;;10446406;28;20709;-71
2021/01/03 23:59:53;;;;;;;16.73;14.67;;;5.80;43.40;;;;;;10461935;28;20252;-71
